KRKD/RKD METAR and TAF weather

Enter ICAO airport designator
Station Type Date Time Source
KRKD METAR 2019/04/25 11:56 UTC NOAA

KRKD 251156Z AUTO 03008G14KT 10SM BKN021 06/02 A2993 RMK AO2 SLP137 70001 T00560017 10056 20000 51021


Station Type Date Time Source
KRKD Decoded METAR 2019/04/25 11:56 UTC NOAA

Rockland, Knox County Regional Airport, ME, United States (KRKD) 44-04N 069-06W
Apr 25, 2019 - 07:56 AM EDT / 2019.04.25 1156 UTC
Wind: from the NNE (030 degrees) at 9 MPH (8 KT) gusting to 16 MPH (14 KT):0
Visibility: 10 mile(s):0
Sky conditions: mostly cloudy
Temperature: 42.1 F (5.6 C)
Dew Point: 35.1 F (1.7 C)
Relative Humidity: 75%
Pressure (altimeter): 29.93 in. Hg (1013 hPa)
Pressure tendency: 0.06 inches (2.1 hPa) higher than three hours ago
ob: KRKD 251156Z AUTO 03008G14KT 10SM BKN021 06/02 A2993 RMK AO2 SLP137 70001 T00560017 10056 20000 51021
cycle: 12

Station Type Date Time Source
KRKD TAF 2019/04/25 12:24 UTC NOAA

TAF KRKD 251120Z 2512/2612 VRB03KT P6SM SCT030
TEMPO 2512/2514 BKN020
FM251400 35005KT P6SM BKN035
FM251700 20008KT P6SM SCT050
FM260400 22004KT P6SM SCT020 BKN100

Example: see airport list